Aviation Digital Data Service (ADDS)

Output produced by METARs form (1726 UTC 31 July 2015)
found at http://aviationweather.gov/adds/metars/
 
KART 311502Z 3115/0112 25012KT P6SM SKC 
     FM312100 23009KT P6SM SCT070 
     FM312300 22007KT P6SM BKN060 
     FM010200 21005KT P6SM VCSH BKN060 
     FM010900 22005KT P6SM BKN070